sensor_id;sensor_type;location;lat;lon;timestamp;pressure;altitude;pressure_sealevel;temperature;humidity
68965;BME280;56017;48.680;8.998;2023-02-17T00:02:06;97540;;;9.9;83
68965;BME280;56017;48.680;8.998;2023-02-17T00:04:28;97540;;;10;83
68965;BME280;56017;48.680;8.998;2023-02-17T00:07:08;97540;;;10;83
68965;BME280;56017;48.680;8.998;2023-02-17T00:09:29;97550;;;10;83
68965;BME280;56017;48.680;8.998;2023-02-17T00:12:09;97550;;;10;83
68965;BME280;56017;48.680;8.998;2023-02-17T00:14:30;97550;;;10.1;83
68965;BME280;56017;48.680;8.998;2023-02-17T00:17:01;97550;;;10.1;83
68965;BME280;56017;48.680;8.998;2023-02-17T00:19:31;97550;;;10.2;83
68965;BME280;56017;48.680;8.998;2023-02-17T00:22:11;97550;;;10.1;83
68965;BME280;56017;48.680;8.998;2023-02-17T00:24:33;97550;;;10.2;83
68965;BME280;56017;48.680;8.998;2023-02-17T00:27:13;97540;;;10.2;83
68965;BME280;56017;48.680;8.998;2023-02-17T00:29:34;97540;;;10.2;83
68965;BME280;56017;48.680;8.998;2023-02-17T00:32:14;97540;;;10.2;83
68965;BME280;56017;48.680;8.998;2023-02-17T00:34:35;97540;;;10.3;83
68965;BME280;56017;48.680;8.998;2023-02-17T00:37:15;97540;;;10.3;83
68965;BME280;56017;48.680;8.998;2023-02-17T00:39:36;97540;;;10.3;83
68965;BME280;56017;48.680;8.998;2023-02-17T00:42:16;97530;;;10.2;83
68965;BME280;56017;48.680;8.998;2023-02-17T00:44:37;97530;;;10.2;83
68965;BME280;56017;48.680;8.998;2023-02-17T00:47:18;97530;;;10.2;83
68965;BME280;56017;48.680;8.998;2023-02-17T00:49:39;97530;;;10.2;83
68965;BME280;56017;48.680;8.998;2023-02-17T00:52:19;97530;;;10.3;83
68965;BME280;56017;48.680;8.998;2023-02-17T00:54:40;97530;;;10.3;83
68965;BME280;56017;48.680;8.998;2023-02-17T00:57:20;97530;;;10.3;83
68965;BME280;56017;48.680;8.998;2023-02-17T00:59:41;97530;;;10.2;83
68965;BME280;56017;48.680;8.998;2023-02-17T01:02:21;97540;;;10.2;83
68965;BME280;56017;48.680;8.998;2023-02-17T01:04:43;97540;;;10.2;83
68965;BME280;56017;48.680;8.998;2023-02-17T01:07:23;97540;;;10.2;83
68965;BME280;56017;48.680;8.998;2023-02-17T01:09:44;97540;;;10.2;83
68965;BME280;56017;48.680;8.998;2023-02-17T01:12:33;97540;;;10.2;83
68965;BME280;56017;48.680;8.998;2023-02-17T01:14:45;97540;;;10.1;83
68965;BME280;56017;48.680;8.998;2023-02-17T01:17:16;97540;;;10.1;83
68965;BME280;56017;48.680;8.998;2023-02-17T01:19:46;97520;;;10.1;83
68965;BME280;56017;48.680;8.998;2023-02-17T01:22:17;97530;;;10.1;83
68965;BME280;56017;48.680;8.998;2023-02-17T01:24:48;97520;;;10;83.5
68965;BME280;56017;48.680;8.998;2023-02-17T01:27:28;97520;;;10;83.5
68965;BME280;56017;48.680;8.998;2023-02-17T01:29:49;97510;;;10;83.5
68965;BME280;56017;48.680;8.998;2023-02-17T01:32:29;97510;;;10.1;83.5
68965;BME280;56017;48.680;8.998;2023-02-17T01:34:50;97510;;;10.1;83.5
68965;BME280;56017;48.680;8.998;2023-02-17T01:37:31;97500;;;10.2;83.5
68965;BME280;56017;48.680;8.998;2023-02-17T01:39:52;97500;;;10.2;83
68965;BME280;56017;48.680;8.998;2023-02-17T01:42:41;97500;;;10.1;83
68965;BME280;56017;48.680;8.998;2023-02-17T01:45:57;97500;;;10.1;83
68965;BME280;56017;48.680;8.998;2023-02-17T01:47:24;97500;;;10.1;83
68965;BME280;56017;48.680;8.998;2023-02-17T01:49:54;97490;;;10.1;83
68965;BME280;56017;48.680;8.998;2023-02-17T01:52:34;97490;;;10.1;83
68965;BME280;56017;48.680;8.998;2023-02-17T01:54:58;97480;;;10.1;83
68965;BME280;56017;48.680;8.998;2023-02-17T01:57:36;97480;;;10;83
68965;BME280;56017;48.680;8.998;2023-02-17T01:59:57;97480;;;9.9;83
68965;BME280;56017;48.680;8.998;2023-02-17T02:02:37;97480;;;9.9;83
68965;BME280;56017;48.680;8.998;2023-02-17T02:04:58;97490;;;9.9;83
68965;BME280;56017;48.680;8.998;2023-02-17T02:07:31;97480;;;9.9;83
68965;BME280;56017;48.680;8.998;2023-02-17T02:09:59;97490;;;9.9;83
68965;BME280;56017;48.680;8.998;2023-02-17T02:12:48;97480;;;10;83
68965;BME280;56017;48.680;8.998;2023-02-17T02:15:02;97480;;;10.1;83
68965;BME280;56017;48.680;8.998;2023-02-17T02:17:46;97480;;;10.1;83
68965;BME280;56017;48.680;8.998;2023-02-17T02:20:06;97480;;;10.1;83
68965;BME280;56017;48.680;8.998;2023-02-17T02:22:59;97480;;;10.1;83
68965;BME280;56017;48.680;8.998;2023-02-17T02:27:41;97480;;;10.1;83
68965;BME280;56017;48.680;8.998;2023-02-17T02:30:10;97490;;;10.1;83
68965;BME280;56017;48.680;8.998;2023-02-17T02:33:49;97480;;;10.1;83
68965;BME280;56017;48.680;8.998;2023-02-17T02:35:07;97480;;;10.1;83
68965;BME280;56017;48.680;8.998;2023-02-17T02:37:48;97470;;;10;83
68965;BME280;56017;48.680;8.998;2023-02-17T02:40:07;97470;;;10;83
68965;BME280;56017;48.680;8.998;2023-02-17T02:42:47;97470;;;10;83
68965;BME280;56017;48.680;8.998;2023-02-17T02:45:09;97460;;;10;83
68965;BME280;56017;48.680;8.998;2023-02-17T02:47:42;97460;;;10;83
68965;BME280;56017;48.680;8.998;2023-02-17T02:50:11;97460;;;9.9;83
68965;BME280;56017;48.680;8.998;2023-02-17T02:52:55;97460;;;9.9;83
68965;BME280;56017;48.680;8.998;2023-02-17T02:55:14;97460;;;9.9;83
68965;BME280;56017;48.680;8.998;2023-02-17T03:00:15;97460;;;9.9;83
68965;BME280;56017;48.680;8.998;2023-02-17T03:02:54;97460;;;9.8;83
68965;BME280;56017;48.680;8.998;2023-02-17T03:05:18;97450;;;9.8;83
68965;BME280;56017;48.680;8.998;2023-02-17T03:08:03;97440;;;9.8;83.5
68965;BME280;56017;48.680;8.998;2023-02-17T03:10:15;97440;;;9.9;83.5
68965;BME280;56017;48.680;8.998;2023-02-17T03:12:55;97440;;;9.9;83.5
68965;BME280;56017;48.680;8.998;2023-02-17T03:15:18;97440;;;9.9;83.5
68965;BME280;56017;48.680;8.998;2023-02-17T03:17:56;97440;;;10;83.5
68965;BME280;56017;48.680;8.998;2023-02-17T03:20:17;97430;;;10;83.5
68965;BME280;56017;48.680;8.998;2023-02-17T03:22:57;97430;;;9.9;83.5
68965;BME280;56017;48.680;8.998;2023-02-17T03:25:19;97420;;;10;83.5
68965;BME280;56017;48.680;8.998;2023-02-17T03:27:59;97420;;;9.9;83
68965;BME280;56017;48.680;8.998;2023-02-17T03:30:20;97420;;;9.9;83
68965;BME280;56017;48.680;8.998;2023-02-17T03:33:09;97420;;;9.9;83
68965;BME280;56017;48.680;8.998;2023-02-17T03:35:21;97430;;;9.8;83
68965;BME280;56017;48.680;8.998;2023-02-17T03:38:01;97430;;;9.8;83
68965;BME280;56017;48.680;8.998;2023-02-17T03:40:23;97430;;;9.8;83
68965;BME280;56017;48.680;8.998;2023-02-17T03:43:02;97430;;;9.7;83
68965;BME280;56017;48.680;8.998;2023-02-17T03:45:24;97430;;;9.7;83
68965;BME280;56017;48.680;8.998;2023-02-17T03:48:13;97440;;;9.7;83
68965;BME280;56017;48.680;8.998;2023-02-17T03:50:25;97440;;;9.6;82.5
68965;BME280;56017;48.680;8.998;2023-02-17T03:53:05;97450;;;9.6;83
68965;BME280;56017;48.680;8.998;2023-02-17T03:55:27;97450;;;9.7;83.5
68965;BME280;56017;48.680;8.998;2023-02-17T03:58:06;97450;;;9.8;83
68965;BME280;56017;48.680;8.998;2023-02-17T04:00:28;97450;;;9.9;83
68965;BME280;56017;48.680;8.998;2023-02-17T04:03:08;97450;;;9.9;83
68965;BME280;56017;48.680;8.998;2023-02-17T04:05:29;97450;;;9.9;83.5
68965;BME280;56017;48.680;8.998;2023-02-17T04:08:09;97450;;;10;83
68965;BME280;56017;48.680;8.998;2023-02-17T04:10:30;97450;;;10;83
68965;BME280;56017;48.680;8.998;2023-02-17T04:13:10;97450;;;10;83
68965;BME280;56017;48.680;8.998;2023-02-17T04:15:32;97450;;;10;83
68965;BME280;56017;48.680;8.998;2023-02-17T04:18:11;97450;;;10;83
68965;BME280;56017;48.680;8.998;2023-02-17T04:20:33;97450;;;10;83
68965;BME280;56017;48.680;8.998;2023-02-17T04:23:03;97450;;;9.9;83
68965;BME280;56017;48.680;8.998;2023-02-17T04:25:35;97450;;;9.9;83
68965;BME280;56017;48.680;8.998;2023-02-17T04:28:14;97450;;;9.9;83.5
68965;BME280;56017;48.680;8.998;2023-02-17T04:30:46;97460;;;9.9;83.5
68965;BME280;56017;48.680;8.998;2023-02-17T04:33:15;97460;;;10;83.5
68965;BME280;56017;48.680;8.998;2023-02-17T04:35:37;97460;;;10;83.5
68965;BME280;56017;48.680;8.998;2023-02-17T04:38:08;97460;;;10;83.5
68965;BME280;56017;48.680;8.998;2023-02-17T04:40:38;97450;;;9.9;83.5
68965;BME280;56017;48.680;8.998;2023-02-17T04:43:18;97450;;;9.9;83.5
68965;BME280;56017;48.680;8.998;2023-02-17T04:45:39;97440;;;10;83.5
68965;BME280;56017;48.680;8.998;2023-02-17T04:48:10;97440;;;10;83.5
68965;BME280;56017;48.680;8.998;2023-02-17T04:50:40;97440;;;10.2;83.5
68965;BME280;56017;48.680;8.998;2023-02-17T04:53:20;97430;;;10.3;83.5
68965;BME280;56017;48.680;8.998;2023-02-17T04:55:42;97430;;;10.3;83
68965;BME280;56017;48.680;8.998;2023-02-17T04:58:22;97420;;;10.3;83.5
68965;BME280;56017;48.680;8.998;2023-02-17T05:00:45;97420;;;10.3;83.5
68965;BME280;56017;48.680;8.998;2023-02-17T05:03:23;97420;;;10.3;83.5
68965;BME280;56017;48.680;8.998;2023-02-17T05:05:54;97430;;;10.3;83.5
68965;BME280;56017;48.680;8.998;2023-02-17T05:08:24;97430;;;10.3;83.5
68965;BME280;56017;48.680;8.998;2023-02-17T05:10:46;97420;;;10.3;83.5
68965;BME280;56017;48.680;8.998;2023-02-17T05:13:35;97410;;;10.3;83.5
68965;BME280;56017;48.680;8.998;2023-02-17T05:15:47;97410;;;10.3;83.5
68965;BME280;56017;48.680;8.998;2023-02-17T05:18:17;97420;;;10.3;83.5
68965;BME280;56017;48.680;8.998;2023-02-17T05:20:48;97420;;;10.3;83.5
68965;BME280;56017;48.680;8.998;2023-02-17T05:23:28;97420;;;10.3;83.5
68965;BME280;56017;48.680;8.998;2023-02-17T05:25:49;97420;;;10.4;83.5
68965;BME280;56017;48.680;8.998;2023-02-17T05:28:29;97420;;;10.4;83.5
68965;BME280;56017;48.680;8.998;2023-02-17T05:30:51;97430;;;10.4;83.5
68965;BME280;56017;48.680;8.998;2023-02-17T05:33:31;97420;;;10.4;83.5
68965;BME280;56017;48.680;8.998;2023-02-17T05:35:52;97430;;;10.4;84
68965;BME280;56017;48.680;8.998;2023-02-17T05:38:23;97420;;;10.4;83.5
68965;BME280;56017;48.680;8.998;2023-02-17T05:40:53;97420;;;10.4;84
68965;BME280;56017;48.680;8.998;2023-02-17T05:43:33;97430;;;10.4;84
68965;BME280;56017;48.680;8.998;2023-02-17T05:46:00;97430;;;10.5;84
68965;BME280;56017;48.680;8.998;2023-02-17T05:48:25;97440;;;10.5;83.5
68965;BME280;56017;48.680;8.998;2023-02-17T05:50:56;97440;;;10.5;83.5
68965;BME280;56017;48.680;8.998;2023-02-17T05:53:36;97440;;;10.5;83.5
68965;BME280;56017;48.680;8.998;2023-02-17T05:55:57;97440;;;10.5;83.5
68965;BME280;56017;48.680;8.998;2023-02-17T05:58:37;97440;;;10.5;83.5
68965;BME280;56017;48.680;8.998;2023-02-17T06:00:58;97450;;;10.5;83.5
68965;BME280;56017;48.680;8.998;2023-02-17T06:03:38;97450;;;10.5;83.5
68965;BME280;56017;48.680;8.998;2023-02-17T06:06:00;97450;;;10.5;83.5
68965;BME280;56017;48.680;8.998;2023-02-17T06:08:40;97460;;;10.6;83.5
68965;BME280;56017;48.680;8.998;2023-02-17T06:11:01;97460;;;10.6;83.5
68965;BME280;56017;48.680;8.998;2023-02-17T06:13:41;97460;;;10.6;83.5
68965;BME280;56017;48.680;8.998;2023-02-17T06:16:02;97460;;;10.6;83.5
68965;BME280;56017;48.680;8.998;2023-02-17T06:18:42;97470;;;10.6;83.5
68965;BME280;56017;48.680;8.998;2023-02-17T06:21:04;97470;;;10.5;83.5
68965;BME280;56017;48.680;8.998;2023-02-17T06:23:44;97470;;;10.4;83.5
68965;BME280;56017;48.680;8.998;2023-02-17T06:26:05;97480;;;10.4;83.5
68965;BME280;56017;48.680;8.998;2023-02-17T06:28:35;97480;;;10.4;83.5
68965;BME280;56017;48.680;8.998;2023-02-17T06:31:06;97480;;;10.4;83.5
68965;BME280;56017;48.680;8.998;2023-02-17T06:33:55;97480;;;10.3;83.5
68965;BME280;56017;48.680;8.998;2023-02-17T06:36:07;97480;;;10.3;83.5
68965;BME280;56017;48.680;8.998;2023-02-17T06:38:38;97480;;;10.2;83.5
68965;BME280;56017;48.680;8.998;2023-02-17T06:41:09;97480;;;10.3;83.5
68965;BME280;56017;48.680;8.998;2023-02-17T06:43:48;97480;;;10.3;83.5
68965;BME280;56017;48.680;8.998;2023-02-17T06:46:10;97490;;;10.4;83
68965;BME280;56017;48.680;8.998;2023-02-17T06:48:50;97480;;;10.4;83
68965;BME280;56017;48.680;8.998;2023-02-17T06:51:11;97480;;;10.3;83
68965;BME280;56017;48.680;8.998;2023-02-17T06:54:00;97470;;;10.3;83.5
68965;BME280;56017;48.680;8.998;2023-02-17T06:56:12;97480;;;10.2;83
68965;BME280;56017;48.680;8.998;2023-02-17T06:58:43;97480;;;10.2;83
68965;BME280;56017;48.680;8.998;2023-02-17T07:01:15;97480;;;10.2;83
68965;BME280;56017;48.680;8.998;2023-02-17T07:03:54;97490;;;10.2;83
68965;BME280;56017;48.680;8.998;2023-02-17T07:06:15;97500;;;10.2;83.5
68965;BME280;56017;48.680;8.998;2023-02-17T07:08:57;97500;;;10.3;83.5
68965;BME280;56017;48.680;8.998;2023-02-17T07:11:16;97500;;;10.3;83.5
68965;BME280;56017;48.680;8.998;2023-02-17T07:13:56;97500;;;10.4;83.5
68965;BME280;56017;48.680;8.998;2023-02-17T07:16:18;97500;;;10.4;83.5
68965;BME280;56017;48.680;8.998;2023-02-17T07:18:48;97500;;;10.5;83.5
68965;BME280;56017;48.680;8.998;2023-02-17T07:21:19;97510;;;10.5;83.5
68965;BME280;56017;48.680;8.998;2023-02-17T07:26:20;97510;;;10.5;83.5
68965;BME280;56017;48.680;8.998;2023-02-17T07:29:00;97530;;;10.5;83.5
68965;BME280;56017;48.680;8.998;2023-02-17T07:31:21;97530;;;10.6;84
68965;BME280;56017;48.680;8.998;2023-02-17T07:34:01;97530;;;10.6;83.5
68965;BME280;56017;48.680;8.998;2023-02-17T07:36:22;97530;;;10.6;83.5
68965;BME280;56017;48.680;8.998;2023-02-17T07:38:53;97520;;;10.6;83.5
68965;BME280;56017;48.680;8.998;2023-02-17T07:41:25;97520;;;10.6;83.5
68965;BME280;56017;48.680;8.998;2023-02-17T07:44:04;97530;;;10.7;83.5
68965;BME280;56017;48.680;8.998;2023-02-17T07:46:25;97520;;;10.7;83.5
68965;BME280;56017;48.680;8.998;2023-02-17T07:49:05;97510;;;10.7;83.5
68965;BME280;56017;48.680;8.998;2023-02-17T07:51:26;97510;;;10.7;83.5
68965;BME280;56017;48.680;8.998;2023-02-17T07:53:57;97520;;;10.7;83.5
68965;BME280;56017;48.680;8.998;2023-02-17T07:56:27;97520;;;10.7;83.5
68965;BME280;56017;48.680;8.998;2023-02-17T07:59:08;97530;;;10.7;83.5
68965;BME280;56017;48.680;8.998;2023-02-17T08:01:29;97530;;;10.8;83.5
68965;BME280;56017;48.680;8.998;2023-02-17T08:03:59;97540;;;10.8;83.5
68965;BME280;56017;48.680;8.998;2023-02-17T08:06:30;97540;;;10.9;83.5
68965;BME280;56017;48.680;8.998;2023-02-17T08:09:19;97540;;;10.9;83.5
68965;BME280;56017;48.680;8.998;2023-02-17T08:11:32;97550;;;10.9;83.5
68965;BME280;56017;48.680;8.998;2023-02-17T08:14:11;97540;;;11;83.5
68965;BME280;56017;48.680;8.998;2023-02-17T08:16:33;97540;;;11.1;83.5
68965;BME280;56017;48.680;8.998;2023-02-17T08:19:22;97530;;;11.2;83.5
68965;BME280;56017;48.680;8.998;2023-02-17T08:21:34;97540;;;11.2;83.5
68965;BME280;56017;48.680;8.998;2023-02-17T08:24:14;97540;;;11.2;83.5
68965;BME280;56017;48.680;8.998;2023-02-17T08:26:35;97540;;;11.2;83.5
68965;BME280;56017;48.680;8.998;2023-02-17T08:29:15;97550;;;11.4;83.5
68965;BME280;56017;48.680;8.998;2023-02-17T08:31:37;97540;;;11.5;83.5
68965;BME280;56017;48.680;8.998;2023-02-17T08:34:08;97540;;;11.4;83.5
68965;BME280;56017;48.680;8.998;2023-02-17T08:36:38;97540;;;11.4;84
68965;BME280;56017;48.680;8.998;2023-02-17T08:39:18;97550;;;11.5;83.5
68965;BME280;56017;48.680;8.998;2023-02-17T08:41:39;97550;;;11.5;83.5
68965;BME280;56017;48.680;8.998;2023-02-17T08:44:19;97550;;;11.5;83.5
68965;BME280;56017;48.680;8.998;2023-02-17T08:46:41;97540;;;11.6;83.5
68965;BME280;56017;48.680;8.998;2023-02-17T08:49:21;97560;;;11.7;83.5
68965;BME280;56017;48.680;8.998;2023-02-17T08:51:42;97540;;;11.9;83.5
68965;BME280;56017;48.680;8.998;2023-02-17T08:54:12;97540;;;12;83.5
68965;BME280;56017;48.680;8.998;2023-02-17T08:56:43;97540;;;12.1;83.5
68965;BME280;56017;48.680;8.998;2023-02-17T08:59:23;97530;;;11.9;83
68965;BME280;56017;48.680;8.998;2023-02-17T09:01:44;97540;;;11.8;83.5
68965;BME280;56017;48.680;8.998;2023-02-17T09:04:15;97540;;;11.8;84
68965;BME280;56017;48.680;8.998;2023-02-17T09:06:47;97540;;;11.7;84
68965;BME280;56017;48.680;8.998;2023-02-17T09:09:25;97540;;;11.7;83.5
68965;BME280;56017;48.680;8.998;2023-02-17T09:11:47;97550;;;11.6;84
68965;BME280;56017;48.680;8.998;2023-02-17T09:14:17;97550;;;11.6;84
68965;BME280;56017;48.680;8.998;2023-02-17T09:16:49;97550;;;11.6;84
68965;BME280;56017;48.680;8.998;2023-02-17T09:19:28;97540;;;11.6;84
68965;BME280;56017;48.680;8.998;2023-02-17T09:21:49;97540;;;11.6;84
68965;BME280;56017;48.680;8.998;2023-02-17T09:24:29;97540;;;11.5;84
68965;BME280;56017;48.680;8.998;2023-02-17T09:26:51;97540;;;11.5;84
68965;BME280;56017;48.680;8.998;2023-02-17T09:29:21;97530;;;11.6;84
68965;BME280;56017;48.680;8.998;2023-02-17T09:32:04;97530;;;11.7;84
68965;BME280;56017;48.680;8.998;2023-02-17T09:34:35;97530;;;11.7;84
68965;BME280;56017;48.680;8.998;2023-02-17T09:36:54;97540;;;11.7;84
68965;BME280;56017;48.680;8.998;2023-02-17T09:39:33;97520;;;11.7;84
68965;BME280;56017;48.680;8.998;2023-02-17T09:41:55;97520;;;11.7;84
68965;BME280;56017;48.680;8.998;2023-02-17T09:44:38;97520;;;11.7;84
68965;BME280;56017;48.680;8.998;2023-02-17T09:46:58;97520;;;11.8;84.5
68965;BME280;56017;48.680;8.998;2023-02-17T09:49:38;97540;;;12;84.5
68965;BME280;56017;48.680;8.998;2023-02-17T09:52:10;97550;;;12.1;84
68965;BME280;56017;48.680;8.998;2023-02-17T09:54:43;97550;;;12.2;84
68965;BME280;56017;48.680;8.998;2023-02-17T09:56:58;97540;;;12.3;84
68965;BME280;56017;48.680;8.998;2023-02-17T09:59:40;97550;;;12.4;83.5
68965;BME280;56017;48.680;8.998;2023-02-17T10:02:00;97550;;;12.4;83.5
68965;BME280;56017;48.680;8.998;2023-02-17T10:04:33;97550;;;12.4;83.5
68965;BME280;56017;48.680;8.998;2023-02-17T10:07:04;97550;;;12.6;83.5
68965;BME280;56017;48.680;8.998;2023-02-17T10:09:44;97560;;;12.7;84
68965;BME280;56017;48.680;8.998;2023-02-17T10:12:04;97560;;;13.1;83.5
68965;BME280;56017;48.680;8.998;2023-02-17T10:14:53;97560;;;13.2;83.5
68965;BME280;56017;48.680;8.998;2023-02-17T10:17:05;97550;;;13.2;83.5
68965;BME280;56017;48.680;8.998;2023-02-17T10:19:46;97570;;;13.3;83
68965;BME280;56017;48.680;8.998;2023-02-17T10:22:10;97570;;;13.2;83
68965;BME280;56017;48.680;8.998;2023-02-17T10:24:45;97570;;;13;84
68965;BME280;56017;48.680;8.998;2023-02-17T10:27:17;97570;;;12.9;84
68965;BME280;56017;48.680;8.998;2023-02-17T10:29:49;97560;;;12.7;84
68965;BME280;56017;48.680;8.998;2023-02-17T10:32:21;97570;;;12.7;84
68965;BME280;56017;48.680;8.998;2023-02-17T10:34:52;97570;;;12.7;84
68965;BME280;56017;48.680;8.998;2023-02-17T10:37:12;97570;;;12.8;84
68965;BME280;56017;48.680;8.998;2023-02-17T10:39:48;97570;;;13;84
68965;BME280;56017;48.680;8.998;2023-02-17T10:42:13;97570;;;13.2;84.5
68965;BME280;56017;48.680;8.998;2023-02-17T10:44:40;97560;;;13.6;84
68965;BME280;56017;48.680;8.998;2023-02-17T10:47:11;97550;;;13.9;83.5
68965;BME280;56017;48.680;8.998;2023-02-17T10:49:56;97550;;;13.9;83.5
68965;BME280;56017;48.680;8.998;2023-02-17T10:52:14;97560;;;14;83.5
68965;BME280;56017;48.680;8.998;2023-02-17T10:54:53;97540;;;14.1;83
68965;BME280;56017;48.680;8.998;2023-02-17T10:57:14;97530;;;14.3;83.5
68965;BME280;56017;48.680;8.998;2023-02-17T10:59:45;97540;;;14.3;83
68965;BME280;56017;48.680;8.998;2023-02-17T11:02:17;97550;;;14.7;82.5
68965;BME280;56017;48.680;8.998;2023-02-17T11:04:55;97550;;;15.2;82
68965;BME280;56017;48.680;8.998;2023-02-17T11:07:17;97560;;;15.4;81.5
68965;BME280;56017;48.680;8.998;2023-02-17T11:09:57;97560;;;15.1;82
68965;BME280;56017;48.680;8.998;2023-02-17T11:12:21;97550;;;14.6;82.5
68965;BME280;56017;48.680;8.998;2023-02-17T11:14:49;97550;;;14.5;83.5
68965;BME280;56017;48.680;8.998;2023-02-17T11:17:21;97550;;;14.5;83.5
68965;BME280;56017;48.680;8.998;2023-02-17T11:20:28;97540;;;14.6;83
68965;BME280;56017;48.680;8.998;2023-02-17T11:22:25;97540;;;14.6;83
68965;BME280;56017;48.680;8.998;2023-02-17T11:25:01;97530;;;14.7;83
68965;BME280;56017;48.680;8.998;2023-02-17T11:27:22;97540;;;14.9;83
68965;BME280;56017;48.680;8.998;2023-02-17T11:30:05;97530;;;14.8;82.5
68965;BME280;56017;48.680;8.998;2023-02-17T11:32:29;97530;;;14.7;83
68965;BME280;56017;48.680;8.998;2023-02-17T11:34:55;97540;;;14.6;83.5
68965;BME280;56017;48.680;8.998;2023-02-17T11:37:24;97530;;;14.5;83
68965;BME280;56017;48.680;8.998;2023-02-17T11:39:55;97530;;;14.3;83.5
68965;BME280;56017;48.680;8.998;2023-02-17T11:42:27;97520;;;14.2;83.5
68965;BME280;56017;48.680;8.998;2023-02-17T11:45:13;97530;;;14;83.5
68965;BME280;56017;48.680;8.998;2023-02-17T11:47:37;97530;;;13.8;84
68965;BME280;56017;48.680;8.998;2023-02-17T11:50:15;97540;;;13.6;84
68965;BME280;56017;48.680;8.998;2023-02-17T11:52:32;97530;;;13.5;84
68965;BME280;56017;48.680;8.998;2023-02-17T11:55:03;97520;;;13.4;84.5
68965;BME280;56017;48.680;8.998;2023-02-17T11:57:50;97520;;;13.4;84.5
68965;BME280;56017;48.680;8.998;2023-02-17T12:02:38;97520;;;13.3;84.5
68965;BME280;56017;48.680;8.998;2023-02-17T12:05:04;97530;;;13.3;84.5
68965;BME280;56017;48.680;8.998;2023-02-17T12:11:18;97540;;;13.2;84.5
68965;BME280;56017;48.680;8.998;2023-02-17T12:12:47;97540;;;13.3;84.5
68965;BME280;56017;48.680;8.998;2023-02-17T12:15:18;97540;;;13.3;84.5
68965;BME280;56017;48.680;8.998;2023-02-17T12:17:44;97550;;;13.2;84.5
68965;BME280;56017;48.680;8.998;2023-02-17T12:20:27;97540;;;13.2;84.5
68965;BME280;56017;48.680;8.998;2023-02-17T12:22:45;97540;;;13.2;84.5
68965;BME280;56017;48.680;8.998;2023-02-17T12:25:20;97540;;;13.2;84.5
68965;BME280;56017;48.680;8.998;2023-02-17T12:27:41;97550;;;13.2;84.5
68965;BME280;56017;48.680;8.998;2023-02-17T12:30:20;97550;;;13.2;84.5
68965;BME280;56017;48.680;8.998;2023-02-17T12:32:43;97540;;;13.2;84.5
68965;BME280;56017;48.680;8.998;2023-02-17T12:35:22;97550;;;13.2;84.5
68965;BME280;56017;48.680;8.998;2023-02-17T12:37:57;97540;;;13.2;84.5
68965;BME280;56017;48.680;8.998;2023-02-17T12:40:27;97540;;;13.3;84.5
68965;BME280;56017;48.680;8.998;2023-02-17T12:42:49;97530;;;13.4;84.5
68965;BME280;56017;48.680;8.998;2023-02-17T12:45:21;97520;;;13.5;84.5
68965;BME280;56017;48.680;8.998;2023-02-17T12:47:46;97520;;;13.6;84
68965;BME280;56017;48.680;8.998;2023-02-17T12:50:24;97520;;;13.6;84
68965;BME280;56017;48.680;8.998;2023-02-17T12:52:43;97510;;;13.8;84
68965;BME280;56017;48.680;8.998;2023-02-17T12:55:24;97520;;;13.9;84
68965;BME280;56017;48.680;8.998;2023-02-17T12:57:48;97520;;;13.8;84
68965;BME280;56017;48.680;8.998;2023-02-17T13:00:41;97520;;;13.7;84
68965;BME280;56017;48.680;8.998;2023-02-17T13:02:46;97520;;;13.7;84
68965;BME280;56017;48.680;8.998;2023-02-17T13:05:27;97520;;;13.7;84
68965;BME280;56017;48.680;8.998;2023-02-17T13:07:48;97510;;;13.8;84.5
68965;BME280;56017;48.680;8.998;2023-02-17T13:10:37;97510;;;13.7;84.5
68965;BME280;56017;48.680;8.998;2023-02-17T13:12:57;97510;;;13.7;84
68965;BME280;56017;48.680;8.998;2023-02-17T13:15:31;97510;;;13.7;84.5
68965;BME280;56017;48.680;8.998;2023-02-17T13:17:52;97520;;;13.8;84.5
68965;BME280;56017;48.680;8.998;2023-02-17T13:20:25;97520;;;13.8;84.5
68965;BME280;56017;48.680;8.998;2023-02-17T13:23:01;97520;;;13.8;84
68965;BME280;56017;48.680;8.998;2023-02-17T13:25:32;97520;;;13.7;84
68965;BME280;56017;48.680;8.998;2023-02-17T13:27:52;97520;;;13.6;84.5
68965;BME280;56017;48.680;8.998;2023-02-17T13:30:40;97520;;;13.7;84.5
68965;BME280;56017;48.680;8.998;2023-02-17T13:33:26;97510;;;13.7;84.5
68965;BME280;56017;48.680;8.998;2023-02-17T13:35:30;97520;;;13.7;84
68965;BME280;56017;48.680;8.998;2023-02-17T13:37:55;97520;;;13.6;84.5
68965;BME280;56017;48.680;8.998;2023-02-17T13:40:36;97520;;;13.6;84.5
68965;BME280;56017;48.680;8.998;2023-02-17T13:43:07;97510;;;13.7;84.5
68965;BME280;56017;48.680;8.998;2023-02-17T13:45:28;97520;;;13.8;84.5
68965;BME280;56017;48.680;8.998;2023-02-17T13:47:58;97520;;;13.9;84.5
68965;BME280;56017;48.680;8.998;2023-02-17T13:50:47;97510;;;14.2;84.5
68965;BME280;56017;48.680;8.998;2023-02-17T13:53:41;97510;;;14.5;84
68965;BME280;56017;48.680;8.998;2023-02-17T13:55:48;97510;;;15.3;83
68965;BME280;56017;48.680;8.998;2023-02-17T13:58:00;97510;;;15.4;82.5
68965;BME280;56017;48.680;8.998;2023-02-17T14:00:41;97500;;;16.3;82
68965;BME280;56017;48.680;8.998;2023-02-17T14:03:20;97490;;;17.4;81
68965;BME280;56017;48.680;8.998;2023-02-17T14:05:42;97500;;;17.3;80.5
68965;BME280;56017;48.680;8.998;2023-02-17T14:08:03;97500;;;16.5;80.5
68965;BME280;56017;48.680;8.998;2023-02-17T14:10:42;97500;;;16.1;82
68965;BME280;56017;48.680;8.998;2023-02-17T14:13:04;97490;;;15.9;82.5
68965;BME280;56017;48.680;8.998;2023-02-17T14:15:52;97490;;;15.9;82.5
68965;BME280;56017;48.680;8.998;2023-02-17T14:18:13;97490;;;16.4;82.5
68965;BME280;56017;48.680;8.998;2023-02-17T14:20:45;97480;;;16.9;81.5
68965;BME280;56017;48.680;8.998;2023-02-17T14:23:08;97490;;;16.3;81.5
68965;BME280;56017;48.680;8.998;2023-02-17T14:25:38;97500;;;15.7;82.5
68965;BME280;56017;48.680;8.998;2023-02-17T14:28:24;97500;;;15.6;83.5
68965;BME280;56017;48.680;8.998;2023-02-17T14:31:06;97490;;;15.4;83
68965;BME280;56017;48.680;8.998;2023-02-17T14:33:20;97490;;;15.2;82.5
68965;BME280;56017;48.680;8.998;2023-02-17T14:38:18;97490;;;15.1;84
68965;BME280;56017;48.680;8.998;2023-02-17T14:40:50;97490;;;15.3;83
68965;BME280;56017;48.680;8.998;2023-02-17T14:43:11;97500;;;15.2;82.5
68965;BME280;56017;48.680;8.998;2023-02-17T14:45:42;97520;;;14.9;82.5